Pisek, ND

10:11 PM CDT on September 21, 2014 (GMT -0500)
Grafton Municipal | Change Station
CLOSE
Current Station
Airport
Location: Grafton,
Elevation: 823 ft
Nearby Weather Stations

Elev 823 ft 48.40 °N, 97.37 °W | Updated 16 minutes ago

Clear
Clear
48 °F
Feels Like 48 °F
N
7
Wind Variable Wind from South

Today
High -- | Low -- °F
--% Chance of Precip.
Yesterday
High -- | Low -- °F
Precip. -- in
7:16 AM 7:30 PM
Waning Crescent, 4% visible
Pressure 30.17 in
Visibility 10.0 miles
Clouds Clear
Dew Point 48 °F
Humidity 100%
Rainfall 0.00 in
Snow Depth Not available.
UV 0 out of 12
Pollen 3.30 out of 12
Air Quality Not available.
Flu Activity Not available.
METAR KGAF 220255Z AUTO 18006KT 10SM CLR 09/09 A3017 RMK AO2

More Conditions Fewer Conditions

Pressure 30.17 in
Visibility 10.0 miles
Clouds Clear
Dew Point 48 °F
Humidity 100%
Rainfall 0.00 in
Snow Depth Not available.
UV 0 out of 12
Pollen 3.30 out of 12
Air Quality Not available.
Flu Activity Not available.
METAR KGAF 220255Z AUTO 18006KT 10SM CLR 09/09 A3017 RMK AO2

More Conditions Fewer Conditions

10-Day Weather Forecast

Almanac

Astronomy

Sep. 21, 2014 Rise Set
Actual Time 7:16 AM CDT 7:30 PM CDT
Civil Twilight 6:44 AM CDT 8:01 PM CDT
Nautical Twilight 6:08 AM CDT 8:38 PM CDT
Astronomical Twilight 5:29 AM CDT 9:16 PM CDT
Moon 4:42 AM CDT (9/21) 6:14 PM CDT (9/21)
Length of Visible Light 13h 16m
Length of Day
12h 14m
Tomorrow will be 3m 29s shorter.
Waning Crescent, 4% of the Moon is Illuminated
Today
Waning Crescent
Sep 24
New
Oct 1
First Quarter
Oct 8
Full
Oct 15
Last Quarter

Today's Extremes

State Highs State Lows

Community

WunderPhotos

Upload Photos

1,755,371 photos uploaded!

WunderBlogs® & News

Nearby

Snow Depth

Station Depth Elevation
No new snow has been reported.

Earthquake Activity

City Distance Mag. Time & Date
No recent earthquake activity has been reported nearby.
Minimum magnitude displayed is 2.5.

Coastal Water Temperatures

Place Temperature
No Stations Reporting

Nearby Weather Stations